createdAt,value
2018-08-03T00:01:25.137Z,20.43
2018-08-03T00:03:53.754Z,19.73
2018-08-03T00:06:22.428Z,19.50
2018-08-03T00:08:50.912Z,20.67
2018-08-03T00:11:19.537Z,19.93
2018-08-03T00:13:48.186Z,19.50
2018-08-03T00:16:16.818Z,20.60
2018-08-03T00:18:45.470Z,19.53
2018-08-03T00:21:14.105Z,19.53
2018-08-03T00:23:42.738Z,19.63
2018-08-03T00:26:11.380Z,18.37
2018-08-03T00:28:40.100Z,19.10
2018-08-03T00:31:08.777Z,19.33
2018-08-03T00:33:37.416Z,18.83
2018-08-03T00:36:06.070Z,19.63
2018-08-03T00:38:34.726Z,19.23
2018-08-03T00:41:02.976Z,18.67
2018-08-03T00:43:31.648Z,19.53
2018-08-03T00:46:00.257Z,18.47
2018-08-03T00:48:28.894Z,19.77
2018-08-03T00:50:57.534Z,19.30
2018-08-03T00:53:26.154Z,19.40
2018-08-03T00:55:54.831Z,19.53
2018-08-03T00:58:23.446Z,19.40
2018-08-03T01:00:52.093Z,20.00
2018-08-03T01:03:20.758Z,20.93
2018-08-03T01:05:49.009Z,21.70
2018-08-03T01:08:17.649Z,21.00
2018-08-03T01:10:46.276Z,19.67
2018-08-03T01:13:14.938Z,19.43
2018-08-03T01:15:43.602Z,19.67
2018-08-03T01:18:12.238Z,20.90
2018-08-03T01:20:40.886Z,19.17
2018-08-03T01:23:09.495Z,20.23
2018-08-03T01:25:38.152Z,18.47
2018-08-03T01:28:06.904Z,19.97
2018-08-03T01:30:35.553Z,19.00
2018-08-03T01:33:04.250Z,20.80
2018-08-03T01:35:32.870Z,20.80
2018-08-03T01:38:01.623Z,19.67
2018-08-03T01:40:30.254Z,18.63
2018-08-03T01:42:58.896Z,19.57
2018-08-03T01:45:27.564Z,19.37
2018-08-03T01:47:56.198Z,18.13
2018-08-03T01:50:24.860Z,18.60
2018-08-03T01:52:53.489Z,19.00
2018-08-03T01:55:22.129Z,18.27
2018-08-03T01:57:50.849Z,18.23
2018-08-03T02:00:19.477Z,18.23
2018-08-03T02:02:48.138Z,18.13
2018-08-03T02:05:16.871Z,17.80
2018-08-03T02:07:45.526Z,17.63
2018-08-03T02:10:14.354Z,16.83
2018-08-03T02:12:43.078Z,18.27
2018-08-03T02:15:11.784Z,17.07
2018-08-03T02:17:40.457Z,16.87
2018-08-03T02:20:09.526Z,17.97
2018-08-03T02:22:38.285Z,17.70
2018-08-03T02:25:07.036Z,17.70
2018-08-03T02:27:35.724Z,18.13
2018-08-03T02:30:04.809Z,17.77
2018-08-03T02:32:33.506Z,17.40
2018-08-03T02:35:02.233Z,17.53
2018-08-03T02:37:30.935Z,17.67
2018-08-03T02:39:59.661Z,17.77
2018-08-03T02:42:28.281Z,17.67
2018-08-03T02:44:56.925Z,17.33
2018-08-03T02:47:25.601Z,17.00
2018-08-03T02:49:54.293Z,18.23
2018-08-03T02:52:22.986Z,18.47
2018-08-03T02:54:51.601Z,16.33
2018-08-03T02:57:20.285Z,17.30
2018-08-03T02:59:48.992Z,17.73
2018-08-03T03:02:17.621Z,17.07
2018-08-03T03:04:46.280Z,17.37
2018-08-03T03:07:14.568Z,17.43
2018-08-03T03:09:43.172Z,17.20
2018-08-03T03:12:11.954Z,17.83
2018-08-03T03:14:40.597Z,17.40
2018-08-03T03:17:09.238Z,16.37
2018-08-03T03:19:38.089Z,17.20
2018-08-03T03:22:06.883Z,15.70
2018-08-03T03:24:35.183Z,16.80
2018-08-03T03:27:03.836Z,18.03
2018-08-03T03:29:32.131Z,18.73
2018-08-03T03:32:00.441Z,18.70
2018-08-03T03:34:29.212Z,18.83
2018-08-03T03:36:57.870Z,19.23
2018-08-03T03:39:26.164Z,19.00
2018-08-03T03:41:54.853Z,18.67
2018-08-03T03:44:23.496Z,18.47
2018-08-03T03:46:52.145Z,18.17
2018-08-03T03:49:20.806Z,17.93
2018-08-03T03:51:49.461Z,17.17
2018-08-03T03:54:18.128Z,17.40
2018-08-03T03:56:46.765Z,17.47
2018-08-03T03:59:15.460Z,16.10
2018-08-03T04:01:44.121Z,15.33
2018-08-03T04:04:12.742Z,15.87
2018-08-03T04:06:41.396Z,15.87
2018-08-03T04:09:11.533Z,14.53
2018-08-03T04:11:40.366Z,16.77
2018-08-03T04:14:09.309Z,15.83
2018-08-03T04:16:38.438Z,14.43
2018-08-03T04:19:07.363Z,14.20
2018-08-03T04:21:36.026Z,15.80
2018-08-03T04:24:04.706Z,14.80
2018-08-03T04:26:33.360Z,14.87
2018-08-03T04:29:02.029Z,14.60
2018-08-03T04:31:30.713Z,14.33
2018-08-03T04:33:59.016Z,14.03
2018-08-03T04:36:28.742Z,14.47
2018-08-03T04:38:57.478Z,14.13
2018-08-03T04:41:26.069Z,14.50
2018-08-03T04:43:54.749Z,15.53
2018-08-03T04:46:23.373Z,16.83
2018-08-03T04:48:51.985Z,14.33
2018-08-03T04:51:20.657Z,14.97
2018-08-03T04:53:49.282Z,14.97
2018-08-03T04:56:17.939Z,14.33
2018-08-03T04:58:46.568Z,15.50
2018-08-03T05:01:14.852Z,14.33
2018-08-03T05:03:43.136Z,13.50
2018-08-03T05:06:11.399Z,14.27
2018-08-03T05:08:40.053Z,12.93
2018-08-03T05:11:08.706Z,14.23
2018-08-03T05:13:37.321Z,13.00
2018-08-03T05:16:06.000Z,14.20
2018-08-03T05:18:34.619Z,13.47
2018-08-03T05:21:02.901Z,13.30
2018-08-03T05:23:31.526Z,12.10
2018-08-03T05:26:00.225Z,13.90
2018-08-03T05:28:28.922Z,14.40
2018-08-03T05:30:58.990Z,13.03
2018-08-03T05:33:27.977Z,13.77
2018-08-03T05:35:56.960Z,12.67
2018-08-03T05:38:25.675Z,12.87
2018-08-03T05:40:54.328Z,11.20
2018-08-03T05:43:22.984Z,10.90
2018-08-03T05:45:51.859Z,11.00
2018-08-03T05:48:20.472Z,10.70
2018-08-03T05:50:49.077Z,11.37
2018-08-03T05:53:17.705Z,11.73
2018-08-03T05:55:46.335Z,11.27
2018-08-03T05:58:14.977Z,10.97
2018-08-03T06:00:43.679Z,10.40
2018-08-03T06:03:12.349Z,10.83
2018-08-03T06:05:40.998Z,10.40
2018-08-03T06:08:09.768Z,10.37
2018-08-03T06:10:38.435Z,10.27
2018-08-03T06:13:07.205Z,10.87
2018-08-03T06:15:35.840Z,9.93
2018-08-03T06:18:04.454Z,10.07
2018-08-03T06:20:33.189Z,10.00
2018-08-03T06:23:01.780Z,9.60
2018-08-03T06:25:30.441Z,10.13
2018-08-03T06:27:59.097Z,10.17
2018-08-03T06:30:27.694Z,9.60
2018-08-03T06:32:56.361Z,10.17
2018-08-03T06:35:24.989Z,10.40
2018-08-03T06:37:53.713Z,10.20
2018-08-03T06:40:22.400Z,9.50
2018-08-03T06:42:51.037Z,10.40
2018-08-03T06:45:19.703Z,10.77
2018-08-03T06:47:48.349Z,10.10
2018-08-03T06:50:16.996Z,9.87
2018-08-03T06:52:45.609Z,10.13
2018-08-03T06:55:14.254Z,10.03
2018-08-03T06:57:42.881Z,9.80
2018-08-03T07:00:11.578Z,9.83
2018-08-03T07:02:40.225Z,8.93
2018-08-03T07:05:08.856Z,8.73
2018-08-03T07:07:37.477Z,9.20
2018-08-03T07:10:06.189Z,10.00
2018-08-03T07:12:34.826Z,9.30
2018-08-03T07:15:03.512Z,9.73
2018-08-03T07:17:32.186Z,10.30
2018-08-03T07:20:00.936Z,9.80
2018-08-03T07:22:29.573Z,10.30
2018-08-03T07:24:58.226Z,10.43
2018-08-03T07:27:26.889Z,10.20
2018-08-03T07:29:55.554Z,10.40
2018-08-03T07:32:24.309Z,10.00
2018-08-03T07:34:52.940Z,9.53
2018-08-03T07:37:21.614Z,9.87
2018-08-03T07:39:50.266Z,9.60
2018-08-03T07:42:18.915Z,10.40
2018-08-03T07:44:47.537Z,9.87
2018-08-03T07:47:16.161Z,9.63
2018-08-03T07:49:44.802Z,9.40
2018-08-03T07:52:13.419Z,9.37
2018-08-03T07:54:42.105Z,9.17
2018-08-03T07:57:10.728Z,9.60
2018-08-03T07:59:39.348Z,9.07
2018-08-03T08:02:08.054Z,9.13
2018-08-03T08:04:36.712Z,9.73
2018-08-03T08:07:05.485Z,10.00
2018-08-03T08:09:34.110Z,9.90
2018-08-03T08:12:02.825Z,10.27
2018-08-03T08:14:31.456Z,9.67
2018-08-03T08:17:00.094Z,9.33
2018-08-03T08:19:28.734Z,10.27
2018-08-03T08:21:57.354Z,9.20
2018-08-03T08:24:26.034Z,10.63
2018-08-03T08:26:54.700Z,9.70
2018-08-03T08:29:23.354Z,10.60
2018-08-03T08:31:52.044Z,9.57
2018-08-03T08:34:20.642Z,9.63
2018-08-03T08:36:49.348Z,10.30
2018-08-03T08:39:17.961Z,9.43
2018-08-03T08:41:46.605Z,9.33
2018-08-03T08:44:15.240Z,10.80
2018-08-03T08:46:43.914Z,10.17
2018-08-03T08:49:12.666Z,9.60
2018-08-03T08:51:41.291Z,9.93
2018-08-03T08:54:09.914Z,10.93
2018-08-03T08:56:38.567Z,10.13
2018-08-03T08:59:07.230Z,9.57
2018-08-03T09:01:35.882Z,10.33
2018-08-03T09:04:04.628Z,10.90
2018-08-03T09:06:33.254Z,9.83
2018-08-03T09:09:01.883Z,9.67
2018-08-03T09:11:30.508Z,10.67
2018-08-03T09:13:59.184Z,10.50
2018-08-03T09:16:27.792Z,10.07
2018-08-03T09:18:56.421Z,10.50
2018-08-03T09:21:25.091Z,9.77
2018-08-03T09:23:57.452Z,10.00
2018-08-03T09:26:26.145Z,9.80
2018-08-03T09:28:54.765Z,9.87
2018-08-03T09:31:23.481Z,12.03
2018-08-03T09:33:52.335Z,10.33
2018-08-03T09:36:20.985Z,10.73
2018-08-03T09:38:49.637Z,10.77
2018-08-03T09:41:18.274Z,10.47
2018-08-03T09:43:46.944Z,9.93
2018-08-03T09:46:15.603Z,10.40
2018-08-03T09:48:44.283Z,9.97
2018-08-03T09:51:12.981Z,10.73
2018-08-03T09:53:41.927Z,10.90
2018-08-03T09:56:10.560Z,10.63
2018-08-03T09:58:39.235Z,10.33
2018-08-03T10:01:11.531Z,10.37
2018-08-03T10:03:41.678Z,9.87
2018-08-03T10:06:10.926Z,9.87
2018-08-03T10:08:39.954Z,9.67
2018-08-03T10:11:09.359Z,8.73
2018-08-03T10:13:38.062Z,10.53
2018-08-03T10:16:06.776Z,9.57
2018-08-03T10:18:35.467Z,10.30
2018-08-03T10:21:04.639Z,10.93
2018-08-03T10:23:33.465Z,9.70
2018-08-03T10:26:02.822Z,9.30
2018-08-03T10:28:31.660Z,9.53
2018-08-03T10:31:00.377Z,10.13
2018-08-03T10:33:29.273Z,9.50
2018-08-03T10:35:57.927Z,9.93
2018-08-03T10:38:26.662Z,8.60
2018-08-03T10:40:55.429Z,8.87
2018-08-03T10:43:24.102Z,8.60
2018-08-03T10:45:52.733Z,8.93
2018-08-03T10:48:21.378Z,9.67
2018-08-03T10:50:50.142Z,8.73
2018-08-03T10:53:18.898Z,8.67
2018-08-03T10:55:47.596Z,8.60
2018-08-03T10:58:16.294Z,8.63
2018-08-03T11:00:44.991Z,8.50
2018-08-03T11:03:13.684Z,8.90
2018-08-03T11:05:42.391Z,9.47
2018-08-03T11:08:11.035Z,8.43
2018-08-03T11:10:39.696Z,9.00
2018-08-03T11:13:08.493Z,9.03
2018-08-03T11:15:37.193Z,8.30
2018-08-03T11:18:05.917Z,8.33
2018-08-03T11:20:34.578Z,9.13
2018-08-03T11:23:03.213Z,9.40
2018-08-03T11:25:31.928Z,10.00
2018-08-03T11:28:00.640Z,9.43
2018-08-03T11:30:28.944Z,8.27
2018-08-03T11:32:57.585Z,8.97
2018-08-03T11:35:26.225Z,8.53
2018-08-03T11:37:55.038Z,8.20
2018-08-03T11:40:30.290Z,8.47
2018-08-03T11:42:58.945Z,9.20
2018-08-03T11:45:27.609Z,9.17
2018-08-03T11:47:56.293Z,8.97
2018-08-03T11:50:25.682Z,9.20
2018-08-03T11:52:59.780Z,8.40
2018-08-03T11:55:28.761Z,9.33
2018-08-03T11:57:57.524Z,8.77
2018-08-03T12:00:26.178Z,9.47
2018-08-03T12:02:54.884Z,9.97
2018-08-03T12:05:23.627Z,9.50
2018-08-03T12:07:52.425Z,8.77
2018-08-03T12:10:21.069Z,9.07
2018-08-03T12:12:49.682Z,9.03
2018-08-03T12:15:18.372Z,9.67
2018-08-03T12:17:47.103Z,10.00
2018-08-03T12:20:15.744Z,9.17
2018-08-03T12:22:44.406Z,9.00
2018-08-03T12:25:13.114Z,10.07
2018-08-03T12:27:41.407Z,9.63
2018-08-03T12:30:10.065Z,8.67
2018-08-03T12:32:38.713Z,8.60
2018-08-03T12:35:07.450Z,9.00
2018-08-03T12:37:36.067Z,9.20
2018-08-03T12:40:04.734Z,9.37
2018-08-03T12:42:33.384Z,8.70
2018-08-03T12:45:02.021Z,9.77
2018-08-03T12:47:30.663Z,9.30
2018-08-03T12:49:59.276Z,9.23
2018-08-03T12:52:27.932Z,8.83
2018-08-03T12:54:56.549Z,8.90
2018-08-03T12:57:25.175Z,8.37
2018-08-03T12:59:53.861Z,9.30
2018-08-03T13:02:22.517Z,8.97
2018-08-03T13:04:51.198Z,8.70
2018-08-03T13:07:19.966Z,8.53
2018-08-03T13:09:48.544Z,7.50
2018-08-03T13:12:17.186Z,9.00
2018-08-03T13:14:45.809Z,8.47
2018-08-03T13:17:14.522Z,7.77
2018-08-03T13:19:43.160Z,8.30
2018-08-03T13:22:21.426Z,9.23
2018-08-03T13:24:50.205Z,8.30
2018-08-03T13:27:19.638Z,8.20
2018-08-03T13:29:48.265Z,9.13
2018-08-03T13:32:16.917Z,8.37
2018-08-03T13:34:45.584Z,8.60
2018-08-03T13:37:14.245Z,9.40
2018-08-03T13:39:42.926Z,9.17
2018-08-03T13:42:11.583Z,9.43
2018-08-03T13:44:40.264Z,8.87
2018-08-03T13:47:08.901Z,9.40
2018-08-03T13:49:37.522Z,9.23
2018-08-03T13:52:06.262Z,9.20
2018-08-03T13:54:34.916Z,10.07
2018-08-03T13:57:03.619Z,9.93
2018-08-03T13:59:32.309Z,9.40
2018-08-03T14:02:12.173Z,9.33
2018-08-03T14:04:43.807Z,10.17
2018-08-03T14:07:12.438Z,9.77
2018-08-03T14:09:41.113Z,10.00
2018-08-03T14:12:09.908Z,10.23
2018-08-03T14:14:39.172Z,9.70
2018-08-03T14:17:07.780Z,9.37
2018-08-03T14:19:36.424Z,9.33
2018-08-03T14:22:05.673Z,9.37
2018-08-03T14:24:34.852Z,10.90
2018-08-03T14:27:04.268Z,8.87
2018-08-03T14:29:33.049Z,9.30
2018-08-03T14:32:01.887Z,9.63
2018-08-03T14:34:30.522Z,9.57
2018-08-03T14:36:59.169Z,9.37
2018-08-03T14:39:27.858Z,9.43
2018-08-03T14:41:56.561Z,9.13
2018-08-03T14:44:24.820Z,9.47
2018-08-03T14:46:53.477Z,9.40
2018-08-03T14:49:22.132Z,9.43
2018-08-03T14:51:50.777Z,8.73
2018-08-03T14:54:19.388Z,8.70
2018-08-03T14:56:48.049Z,9.33
2018-08-03T14:59:16.705Z,8.57
2018-08-03T15:01:45.389Z,9.30
2018-08-03T15:04:14.049Z,9.30
2018-08-03T15:06:42.681Z,8.83
2018-08-03T15:09:12.423Z,8.47
2018-08-03T15:11:41.232Z,9.33
2018-08-03T15:14:09.874Z,8.80
2018-08-03T15:16:38.160Z,9.43
2018-08-03T15:19:07.014Z,9.43
2018-08-03T15:21:35.652Z,9.17
2018-08-03T15:24:04.376Z,8.57
2018-08-03T15:26:33.065Z,8.87
2018-08-03T15:29:01.755Z,8.60
2018-08-03T15:31:30.387Z,9.40
2018-08-03T15:33:59.053Z,9.47
2018-08-03T15:36:27.817Z,8.87
2018-08-03T15:38:56.447Z,8.63
2018-08-03T15:41:25.122Z,9.00
2018-08-03T15:43:53.797Z,9.13
2018-08-03T15:46:22.414Z,9.17
2018-08-03T15:48:51.058Z,8.97
2018-08-03T15:51:19.705Z,9.10
2018-08-03T15:53:48.389Z,9.40
2018-08-03T15:56:17.022Z,8.63
2018-08-03T15:58:45.696Z,8.80
2018-08-03T16:01:14.354Z,8.37
2018-08-03T16:03:43.010Z,8.60
2018-08-03T16:06:11.652Z,8.43
2018-08-03T16:08:40.334Z,8.37
2018-08-03T16:11:08.961Z,9.23
2018-08-03T16:13:37.617Z,9.10
2018-08-03T16:16:06.269Z,8.73
2018-08-03T16:18:35.283Z,8.83
2018-08-03T16:21:03.920Z,8.97
2018-08-03T16:23:32.565Z,8.97
2018-08-03T16:26:01.240Z,8.30
2018-08-03T16:28:29.863Z,8.87
2018-08-03T16:30:58.528Z,8.20
2018-08-03T16:33:27.149Z,8.40
2018-08-03T16:35:55.797Z,8.90
2018-08-03T16:38:24.448Z,8.10
2018-08-03T16:40:53.136Z,8.90
2018-08-03T16:43:21.854Z,8.63
2018-08-03T16:45:50.489Z,8.20
2018-08-03T16:48:19.174Z,8.57
2018-08-03T16:50:47.855Z,9.37
2018-08-03T16:53:16.530Z,10.23
2018-08-03T16:55:45.212Z,8.73
2018-08-03T16:58:13.833Z,9.03
2018-08-03T17:00:42.498Z,9.00
2018-08-03T17:03:11.576Z,8.97
2018-08-03T17:05:40.187Z,9.20
2018-08-03T17:08:08.843Z,8.63
2018-08-03T17:10:37.499Z,8.57
2018-08-03T17:13:06.299Z,8.67
2018-08-03T17:15:34.957Z,9.17
2018-08-03T17:18:03.609Z,8.97
2018-08-03T17:20:32.298Z,8.67
2018-08-03T17:23:00.934Z,7.87
2018-08-03T17:25:29.578Z,9.00
2018-08-03T17:27:58.294Z,9.17
2018-08-03T17:30:26.988Z,9.37
2018-08-03T17:32:55.637Z,8.43
2018-08-03T17:35:24.286Z,9.60
2018-08-03T17:37:52.900Z,9.57
2018-08-03T17:40:21.570Z,9.37
2018-08-03T17:42:50.316Z,9.77
2018-08-03T17:45:19.137Z,10.23
2018-08-03T17:47:47.783Z,9.90
2018-08-03T17:50:16.425Z,10.93
2018-08-03T17:52:45.262Z,10.27
2018-08-03T17:55:13.881Z,9.97
2018-08-03T17:57:42.525Z,10.23
2018-08-03T18:00:11.296Z,9.80
2018-08-03T18:02:39.920Z,8.83
2018-08-03T18:05:08.224Z,8.57
2018-08-03T18:07:36.853Z,9.10
2018-08-03T18:10:06.257Z,9.23
2018-08-03T18:12:34.884Z,9.10
2018-08-03T18:15:03.714Z,9.13
2018-08-03T18:17:37.601Z,9.10
2018-08-03T18:20:08.444Z,10.27
2018-08-03T18:22:37.126Z,10.90
2018-08-03T18:25:05.798Z,10.27
2018-08-03T18:27:34.533Z,10.63
2018-08-03T18:30:03.257Z,10.93
2018-08-03T18:32:31.897Z,10.27
2018-08-03T18:35:00.796Z,10.73
2018-08-03T18:37:29.444Z,27.10
2018-08-03T18:39:58.117Z,10.60
2018-08-03T18:42:26.807Z,10.90
2018-08-03T18:44:55.534Z,11.57
2018-08-03T18:47:24.334Z,12.00
2018-08-03T18:49:52.942Z,10.23
2018-08-03T18:52:21.263Z,11.50
2018-08-03T18:54:50.061Z,12.57
2018-08-03T18:57:19.199Z,12.13
2018-08-03T18:59:47.985Z,11.27
2018-08-03T19:02:16.670Z,11.43
2018-08-03T19:04:45.357Z,11.47
2018-08-03T19:07:14.116Z,10.73
2018-08-03T19:09:43.968Z,10.60
2018-08-03T19:12:12.805Z,11.77
2018-08-03T19:14:41.502Z,10.90
2018-08-03T19:17:10.260Z,11.27
2018-08-03T19:19:38.561Z,10.73
2018-08-03T19:22:07.260Z,11.03
2018-08-03T19:24:35.928Z,12.33
2018-08-03T19:27:04.577Z,10.53
2018-08-03T19:29:33.234Z,11.10
2018-08-03T19:32:01.963Z,10.93
2018-08-03T19:34:30.244Z,11.77
2018-08-03T19:36:58.973Z,11.23
2018-08-03T19:39:27.613Z,10.47
2018-08-03T19:41:56.333Z,10.87
2018-08-03T19:44:24.995Z,10.90
2018-08-03T19:46:53.629Z,10.57
2018-08-03T19:49:22.351Z,10.63
2018-08-03T19:51:51.021Z,12.03
2018-08-03T19:54:19.923Z,13.60
2018-08-03T19:56:48.614Z,10.87
2018-08-03T19:59:17.409Z,11.17
2018-08-03T20:01:46.129Z,11.10
2018-08-03T20:04:14.801Z,11.00
2018-08-03T20:06:43.512Z,10.63
2018-08-03T20:09:13.068Z,11.23
2018-08-03T20:11:41.728Z,11.17
2018-08-03T20:14:10.438Z,11.03
2018-08-03T20:16:39.068Z,11.23
2018-08-03T20:19:07.826Z,11.27
2018-08-03T20:21:36.495Z,9.97
2018-08-03T20:24:05.202Z,10.47
2018-08-03T20:26:34.018Z,10.40
2018-08-03T20:29:02.734Z,10.80
2018-08-03T20:31:31.432Z,10.00
2018-08-03T20:34:00.110Z,10.23
2018-08-03T20:36:28.815Z,10.10
2018-08-03T20:38:57.694Z,11.40
2018-08-03T20:41:26.330Z,10.43
2018-08-03T20:43:55.061Z,11.40
2018-08-03T20:46:23.784Z,10.80
2018-08-03T20:48:52.433Z,11.07
2018-08-03T20:51:21.105Z,10.67
2018-08-03T20:53:49.724Z,10.23
2018-08-03T20:56:18.397Z,10.50
2018-08-03T20:58:47.086Z,10.83
2018-08-03T21:01:15.753Z,11.60
2018-08-03T21:03:44.423Z,10.17
2018-08-03T21:06:13.101Z,10.37
2018-08-03T21:08:41.745Z,11.00
2018-08-03T21:11:10.651Z,10.53
2018-08-03T21:13:43.605Z,11.17
2018-08-03T21:16:31.922Z,12.17
2018-08-03T21:19:00.890Z,10.60
2018-08-03T21:21:29.548Z,11.37
2018-08-03T21:23:58.183Z,11.50
2018-08-03T21:26:26.879Z,11.33
2018-08-03T21:28:55.174Z,11.50
2018-08-03T21:31:23.886Z,11.53
2018-08-03T21:33:52.566Z,11.73
2018-08-03T21:36:21.241Z,11.57
2018-08-03T21:38:49.961Z,11.90
2018-08-03T21:41:18.649Z,11.43
2018-08-03T21:43:47.350Z,12.00
2018-08-03T21:46:16.057Z,12.43
2018-08-03T21:48:44.712Z,11.93
2018-08-03T21:51:13.389Z,11.83
2018-08-03T21:53:42.063Z,11.17
2018-08-03T21:56:10.754Z,11.57
2018-08-03T21:58:39.455Z,11.50
2018-08-03T22:01:10.845Z,11.27
2018-08-03T22:03:39.608Z,11.90
2018-08-03T22:06:08.302Z,11.37
2018-08-03T22:08:37.236Z,11.63
2018-08-03T22:11:05.954Z,11.57
2018-08-03T22:13:35.126Z,12.00
2018-08-03T22:16:03.820Z,12.70
2018-08-03T22:18:32.507Z,12.77
2018-08-03T22:21:01.265Z,11.77
2018-08-03T22:23:29.937Z,11.80
2018-08-03T22:25:58.861Z,11.80
2018-08-03T22:28:27.580Z,13.43
2018-08-03T22:30:56.271Z,12.10
2018-08-03T22:33:24.910Z,12.10
2018-08-03T22:35:53.593Z,11.90
2018-08-03T22:38:22.223Z,12.27
2018-08-03T22:40:50.849Z,12.10
2018-08-03T22:43:19.495Z,12.60
2018-08-03T22:45:48.130Z,12.57
2018-08-03T22:48:16.787Z,12.80
2018-08-03T22:50:48.353Z,12.17
2018-08-03T22:53:16.987Z,11.80
2018-08-03T22:55:45.606Z,12.37
2018-08-03T22:58:14.239Z,13.20
2018-08-03T23:00:42.902Z,12.77
2018-08-03T23:03:11.574Z,12.27
2018-08-03T23:05:40.243Z,11.93
2018-08-03T23:08:08.930Z,12.63
2018-08-03T23:10:37.597Z,13.10
2018-08-03T23:13:06.288Z,12.93
2018-08-03T23:15:34.945Z,13.07
2018-08-03T23:18:03.573Z,13.20
2018-08-03T23:20:32.214Z,12.27
2018-08-03T23:23:00.920Z,13.50
2018-08-03T23:25:29.565Z,14.00
2018-08-03T23:27:58.498Z,13.43
2018-08-03T23:30:27.142Z,12.53
2018-08-03T23:32:55.876Z,12.70
2018-08-03T23:35:24.531Z,13.37
2018-08-03T23:37:53.206Z,13.60
2018-08-03T23:40:21.841Z,13.53
2018-08-03T23:42:50.497Z,13.07
2018-08-03T23:45:19.182Z,14.50
2018-08-03T23:47:47.929Z,13.53
2018-08-03T23:50:18.732Z,13.07
2018-08-03T23:52:49.234Z,14.60
2018-08-03T23:55:17.922Z,13.57
2018-08-03T23:57:46.817Z,14.23
